sensor_id;sensor_type;location;lat;lon;timestamp;P1;durP1;ratioP1;P2;durP2;ratioP2
37445;SDS011;23307;51.136;14.942;2023-03-19T00:01:01;13.43;;;9.65;;
37445;SDS011;23307;51.136;14.942;2023-03-19T00:03:28;12.77;;;9.07;;
37445;SDS011;23307;51.136;14.942;2023-03-19T00:05:53;17.00;;;10.30;;
37445;SDS011;23307;51.136;14.942;2023-03-19T00:08:19;15.10;;;9.15;;
37445;SDS011;23307;51.136;14.942;2023-03-19T00:10:46;14.25;;;9.63;;
37445;SDS011;23307;51.136;14.942;2023-03-19T00:13:12;13.40;;;8.60;;
37445;SDS011;23307;51.136;14.942;2023-03-19T00:15:37;14.10;;;9.82;;
37445;SDS011;23307;51.136;14.942;2023-03-19T00:18:03;14.90;;;8.98;;
37445;SDS011;23307;51.136;14.942;2023-03-19T00:20:30;12.55;;;8.98;;
37445;SDS011;23307;51.136;14.942;2023-03-19T00:22:56;14.02;;;9.02;;
37445;SDS011;23307;51.136;14.942;2023-03-19T00:25:21;13.63;;;8.85;;
37445;SDS011;23307;51.136;14.942;2023-03-19T00:27:47;13.18;;;8.52;;
37445;SDS011;23307;51.136;14.942;2023-03-19T00:30:13;11.50;;;8.23;;
37445;SDS011;23307;51.136;14.942;2023-03-19T00:32:39;14.23;;;8.35;;
37445;SDS011;23307;51.136;14.942;2023-03-19T00:35:05;15.73;;;8.82;;
37445;SDS011;23307;51.136;14.942;2023-03-19T00:37:32;11.75;;;8.77;;
37445;SDS011;23307;51.136;14.942;2023-03-19T00:39:58;10.63;;;7.72;;
37445;SDS011;23307;51.136;14.942;2023-03-19T00:42:23;11.27;;;8.10;;
37445;SDS011;23307;51.136;14.942;2023-03-19T00:44:49;10.73;;;8.18;;
37445;SDS011;23307;51.136;14.942;2023-03-19T00:47:15;12.63;;;8.35;;
37445;SDS011;23307;51.136;14.942;2023-03-19T00:49:40;12.57;;;7.90;;
37445;SDS011;23307;51.136;14.942;2023-03-19T00:52:06;11.52;;;7.93;;
37445;SDS011;23307;51.136;14.942;2023-03-19T00:54:32;12.50;;;7.38;;
37445;SDS011;23307;51.136;14.942;2023-03-19T00:56:58;13.10;;;7.45;;
37445;SDS011;23307;51.136;14.942;2023-03-19T00:59:24;11.70;;;8.18;;
37445;SDS011;23307;51.136;14.942;2023-03-19T01:01:49;11.32;;;8.07;;
37445;SDS011;23307;51.136;14.942;2023-03-19T01:04:15;11.82;;;8.05;;
37445;SDS011;23307;51.136;14.942;2023-03-19T01:06:41;10.60;;;7.65;;
37445;SDS011;23307;51.136;14.942;2023-03-19T01:09:07;10.45;;;7.72;;
37445;SDS011;23307;51.136;14.942;2023-03-19T01:11:33;12.18;;;8.38;;
37445;SDS011;23307;51.136;14.942;2023-03-19T01:13:59;9.80;;;7.22;;
37445;SDS011;23307;51.136;14.942;2023-03-19T01:16:25;11.93;;;7.85;;
37445;SDS011;23307;51.136;14.942;2023-03-19T01:18:51;13.20;;;7.85;;
37445;SDS011;23307;51.136;14.942;2023-03-19T01:21:17;11.23;;;8.10;;
37445;SDS011;23307;51.136;14.942;2023-03-19T01:23:43;10.13;;;7.07;;
37445;SDS011;23307;51.136;14.942;2023-03-19T01:26:08;12.48;;;8.07;;
37445;SDS011;23307;51.136;14.942;2023-03-19T01:28:34;10.93;;;7.45;;
37445;SDS011;23307;51.136;14.942;2023-03-19T01:31:00;9.40;;;6.90;;
37445;SDS011;23307;51.136;14.942;2023-03-19T01:33:29;10.77;;;7.22;;
37445;SDS011;23307;51.136;14.942;2023-03-19T01:35:55;9.95;;;7.07;;
37445;SDS011;23307;51.136;14.942;2023-03-19T01:38:22;10.70;;;6.80;;
37445;SDS011;23307;51.136;14.942;2023-03-19T01:40:47;11.63;;;7.45;;
37445;SDS011;23307;51.136;14.942;2023-03-19T01:43:14;12.07;;;6.70;;
37445;SDS011;23307;51.136;14.942;2023-03-19T01:45:49;12.85;;;7.30;;
37445;SDS011;23307;51.136;14.942;2023-03-19T01:48:24;11.40;;;7.10;;
37445;SDS011;23307;51.136;14.942;2023-03-19T01:50:53;10.95;;;7.15;;
37445;SDS011;23307;51.136;14.942;2023-03-19T01:53:25;11.10;;;7.30;;
37445;SDS011;23307;51.136;14.942;2023-03-19T01:55:55;12.65;;;7.10;;
37445;SDS011;23307;51.136;14.942;2023-03-19T01:58:26;9.88;;;7.47;;
37445;SDS011;23307;51.136;14.942;2023-03-19T02:00:52;12.40;;;7.85;;
37445;SDS011;23307;51.136;14.942;2023-03-19T02:03:18;11.02;;;7.43;;
37445;SDS011;23307;51.136;14.942;2023-03-19T02:05:44;9.48;;;7.05;;
37445;SDS011;23307;51.136;14.942;2023-03-19T02:08:13;12.88;;;7.47;;
37445;SDS011;23307;51.136;14.942;2023-03-19T02:10:40;11.27;;;7.70;;
37445;SDS011;23307;51.136;14.942;2023-03-19T02:13:08;12.50;;;8.10;;
37445;SDS011;23307;51.136;14.942;2023-03-19T02:15:34;9.98;;;7.20;;
37445;SDS011;23307;51.136;14.942;2023-03-19T02:17:59;14.25;;;6.82;;
37445;SDS011;23307;51.136;14.942;2023-03-19T02:23:23;10.35;;;7.20;;
37445;SDS011;23307;51.136;14.942;2023-03-19T02:28:37;9.07;;;7.05;;
37445;SDS011;23307;51.136;14.942;2023-03-19T02:31:06;11.98;;;7.30;;
37445;SDS011;23307;51.136;14.942;2023-03-19T02:33:32;10.18;;;7.20;;
37445;SDS011;23307;51.136;14.942;2023-03-19T02:35:58;10.15;;;7.13;;
37445;SDS011;23307;51.136;14.942;2023-03-19T02:38:26;10.25;;;6.85;;
37445;SDS011;23307;51.136;14.942;2023-03-19T02:40:57;12.18;;;7.15;;
37445;SDS011;23307;51.136;14.942;2023-03-19T02:43:25;10.20;;;7.10;;
37445;SDS011;23307;51.136;14.942;2023-03-19T02:45:52;11.57;;;7.32;;
37445;SDS011;23307;51.136;14.942;2023-03-19T02:48:18;11.30;;;6.95;;
37445;SDS011;23307;51.136;14.942;2023-03-19T02:50:44;11.40;;;6.70;;
37445;SDS011;23307;51.136;14.942;2023-03-19T02:53:10;9.10;;;6.68;;
37445;SDS011;23307;51.136;14.942;2023-03-19T02:55:35;10.80;;;6.25;;
37445;SDS011;23307;51.136;14.942;2023-03-19T02:58:01;12.13;;;7.30;;
37445;SDS011;23307;51.136;14.942;2023-03-19T03:00:27;9.82;;;7.10;;
37445;SDS011;23307;51.136;14.942;2023-03-19T03:02:53;11.45;;;7.22;;
37445;SDS011;23307;51.136;14.942;2023-03-19T03:05:21;9.65;;;7.28;;
37445;SDS011;23307;51.136;14.942;2023-03-19T03:07:46;10.75;;;6.93;;
37445;SDS011;23307;51.136;14.942;2023-03-19T03:10:13;11.95;;;7.55;;
37445;SDS011;23307;51.136;14.942;2023-03-19T03:12:39;10.45;;;7.15;;
37445;SDS011;23307;51.136;14.942;2023-03-19T03:15:05;9.32;;;6.57;;
37445;SDS011;23307;51.136;14.942;2023-03-19T03:17:32;8.52;;;6.00;;
37445;SDS011;23307;51.136;14.942;2023-03-19T03:20:01;9.50;;;7.28;;
37445;SDS011;23307;51.136;14.942;2023-03-19T03:22:26;10.93;;;6.85;;
37445;SDS011;23307;51.136;14.942;2023-03-19T03:24:51;10.80;;;6.32;;
37445;SDS011;23307;51.136;14.942;2023-03-19T03:27:17;8.88;;;6.72;;
37445;SDS011;23307;51.136;14.942;2023-03-19T03:29:42;11.07;;;6.75;;
37445;SDS011;23307;51.136;14.942;2023-03-19T03:32:08;10.60;;;6.60;;
37445;SDS011;23307;51.136;14.942;2023-03-19T03:34:33;11.05;;;7.20;;
37445;SDS011;23307;51.136;14.942;2023-03-19T03:36:59;11.07;;;7.25;;
37445;SDS011;23307;51.136;14.942;2023-03-19T03:39:24;9.82;;;7.40;;
37445;SDS011;23307;51.136;14.942;2023-03-19T03:41:50;12.27;;;7.30;;
37445;SDS011;23307;51.136;14.942;2023-03-19T03:44:16;8.95;;;6.72;;
37445;SDS011;23307;51.136;14.942;2023-03-19T03:46:42;13.65;;;6.97;;
37445;SDS011;23307;51.136;14.942;2023-03-19T03:49:07;9.95;;;6.57;;
37445;SDS011;23307;51.136;14.942;2023-03-19T03:51:33;10.88;;;7.22;;
37445;SDS011;23307;51.136;14.942;2023-03-19T03:53:59;9.93;;;7.20;;
37445;SDS011;23307;51.136;14.942;2023-03-19T03:56:25;11.55;;;7.25;;
37445;SDS011;23307;51.136;14.942;2023-03-19T03:58:51;10.63;;;7.13;;
37445;SDS011;23307;51.136;14.942;2023-03-19T04:01:16;10.25;;;6.85;;
37445;SDS011;23307;51.136;14.942;2023-03-19T04:03:42;9.65;;;6.97;;
37445;SDS011;23307;51.136;14.942;2023-03-19T04:06:09;11.15;;;6.93;;
37445;SDS011;23307;51.136;14.942;2023-03-19T04:08:42;13.30;;;6.90;;
37445;SDS011;23307;51.136;14.942;2023-03-19T04:11:08;11.43;;;7.28;;
37445;SDS011;23307;51.136;14.942;2023-03-19T04:13:33;10.63;;;7.07;;
37445;SDS011;23307;51.136;14.942;2023-03-19T04:16:07;12.30;;;7.57;;
37445;SDS011;23307;51.136;14.942;2023-03-19T04:18:34;12.05;;;7.60;;
37445;SDS011;23307;51.136;14.942;2023-03-19T04:21:00;10.65;;;7.32;;
37445;SDS011;23307;51.136;14.942;2023-03-19T04:23:27;10.68;;;7.40;;
37445;SDS011;23307;51.136;14.942;2023-03-19T04:25:57;10.35;;;6.93;;
37445;SDS011;23307;51.136;14.942;2023-03-19T04:28:24;9.80;;;7.28;;
37445;SDS011;23307;51.136;14.942;2023-03-19T04:30:49;9.43;;;7.00;;
37445;SDS011;23307;51.136;14.942;2023-03-19T04:33:15;9.02;;;6.97;;
37445;SDS011;23307;51.136;14.942;2023-03-19T04:35:41;9.27;;;6.60;;
37445;SDS011;23307;51.136;14.942;2023-03-19T04:38:07;10.18;;;7.13;;
37445;SDS011;23307;51.136;14.942;2023-03-19T04:40:33;16.17;;;7.18;;
37445;SDS011;23307;51.136;14.942;2023-03-19T04:42:58;11.90;;;7.20;;
37445;SDS011;23307;51.136;14.942;2023-03-19T04:45:24;9.93;;;7.90;;
37445;SDS011;23307;51.136;14.942;2023-03-19T04:47:50;10.23;;;6.88;;
37445;SDS011;23307;51.136;14.942;2023-03-19T04:50:15;10.90;;;7.65;;
37445;SDS011;23307;51.136;14.942;2023-03-19T04:52:41;9.40;;;6.80;;
37445;SDS011;23307;51.136;14.942;2023-03-19T04:55:06;9.02;;;6.93;;
37445;SDS011;23307;51.136;14.942;2023-03-19T04:57:32;13.73;;;6.90;;
37445;SDS011;23307;51.136;14.942;2023-03-19T04:59:58;8.43;;;6.70;;
37445;SDS011;23307;51.136;14.942;2023-03-19T05:02:24;11.43;;;6.80;;
37445;SDS011;23307;51.136;14.942;2023-03-19T05:04:51;11.50;;;6.50;;
37445;SDS011;23307;51.136;14.942;2023-03-19T05:07:16;9.65;;;7.05;;
37445;SDS011;23307;51.136;14.942;2023-03-19T05:09:42;8.30;;;6.35;;
37445;SDS011;23307;51.136;14.942;2023-03-19T05:12:08;11.98;;;7.85;;
37445;SDS011;23307;51.136;14.942;2023-03-19T05:14:34;9.48;;;7.22;;
37445;SDS011;23307;51.136;14.942;2023-03-19T05:17:00;9.73;;;7.35;;
37445;SDS011;23307;51.136;14.942;2023-03-19T05:19:25;9.90;;;6.95;;
37445;SDS011;23307;51.136;14.942;2023-03-19T05:21:51;8.38;;;6.25;;
37445;SDS011;23307;51.136;14.942;2023-03-19T05:24:16;9.75;;;7.00;;
37445;SDS011;23307;51.136;14.942;2023-03-19T05:26:42;10.85;;;7.60;;
37445;SDS011;23307;51.136;14.942;2023-03-19T05:29:07;9.82;;;6.93;;
37445;SDS011;23307;51.136;14.942;2023-03-19T05:31:34;9.88;;;6.90;;
37445;SDS011;23307;51.136;14.942;2023-03-19T05:34:01;9.43;;;6.75;;
37445;SDS011;23307;51.136;14.942;2023-03-19T05:36:27;10.20;;;7.10;;
37445;SDS011;23307;51.136;14.942;2023-03-19T05:38:52;9.07;;;6.68;;
37445;SDS011;23307;51.136;14.942;2023-03-19T05:41:18;9.48;;;7.25;;
37445;SDS011;23307;51.136;14.942;2023-03-19T05:43:43;10.73;;;7.28;;
37445;SDS011;23307;51.136;14.942;2023-03-19T05:46:09;10.77;;;7.10;;
37445;SDS011;23307;51.136;14.942;2023-03-19T05:48:35;7.40;;;6.32;;
37445;SDS011;23307;51.136;14.942;2023-03-19T05:51:01;8.65;;;6.75;;
37445;SDS011;23307;51.136;14.942;2023-03-19T05:53:27;9.85;;;6.88;;
37445;SDS011;23307;51.136;14.942;2023-03-19T05:55:52;9.05;;;7.13;;
37445;SDS011;23307;51.136;14.942;2023-03-19T05:58:18;8.13;;;6.63;;
37445;SDS011;23307;51.136;14.942;2023-03-19T06:00:43;11.10;;;8.00;;
37445;SDS011;23307;51.136;14.942;2023-03-19T06:03:09;9.68;;;7.18;;
37445;SDS011;23307;51.136;14.942;2023-03-19T06:05:34;13.57;;;7.82;;
37445;SDS011;23307;51.136;14.942;2023-03-19T06:08:00;9.45;;;6.95;;
37445;SDS011;23307;51.136;14.942;2023-03-19T06:10:25;8.15;;;6.63;;
37445;SDS011;23307;51.136;14.942;2023-03-19T06:12:51;8.80;;;7.18;;
37445;SDS011;23307;51.136;14.942;2023-03-19T06:15:17;13.18;;;7.05;;
37445;SDS011;23307;51.136;14.942;2023-03-19T06:17:42;10.75;;;7.05;;
37445;SDS011;23307;51.136;14.942;2023-03-19T06:20:09;10.00;;;6.78;;
37445;SDS011;23307;51.136;14.942;2023-03-19T06:22:35;10.00;;;8.75;;
37445;SDS011;23307;51.136;14.942;2023-03-19T06:25:00;9.40;;;7.43;;
37445;SDS011;23307;51.136;14.942;2023-03-19T06:27:26;9.63;;;7.18;;
37445;SDS011;23307;51.136;14.942;2023-03-19T06:29:52;10.75;;;7.45;;
37445;SDS011;23307;51.136;14.942;2023-03-19T06:32:17;9.73;;;7.43;;
37445;SDS011;23307;51.136;14.942;2023-03-19T06:34:43;10.40;;;6.95;;
37445;SDS011;23307;51.136;14.942;2023-03-19T06:37:08;9.05;;;7.45;;
37445;SDS011;23307;51.136;14.942;2023-03-19T06:39:34;9.52;;;7.25;;
37445;SDS011;23307;51.136;14.942;2023-03-19T06:41:59;11.38;;;7.35;;
37445;SDS011;23307;51.136;14.942;2023-03-19T06:44:25;9.32;;;7.32;;
37445;SDS011;23307;51.136;14.942;2023-03-19T06:46:51;9.82;;;7.03;;
37445;SDS011;23307;51.136;14.942;2023-03-19T06:49:16;10.80;;;7.38;;
37445;SDS011;23307;51.136;14.942;2023-03-19T06:51:42;10.32;;;7.13;;
37445;SDS011;23307;51.136;14.942;2023-03-19T06:54:07;10.55;;;6.78;;
37445;SDS011;23307;51.136;14.942;2023-03-19T06:56:33;12.43;;;7.35;;
37445;SDS011;23307;51.136;14.942;2023-03-19T06:58:58;11.60;;;7.80;;
37445;SDS011;23307;51.136;14.942;2023-03-19T07:01:24;10.05;;;7.60;;
37445;SDS011;23307;51.136;14.942;2023-03-19T07:03:49;11.05;;;7.63;;
37445;SDS011;23307;51.136;14.942;2023-03-19T07:06:15;11.02;;;7.78;;
37445;SDS011;23307;51.136;14.942;2023-03-19T07:08:40;11.23;;;7.93;;
37445;SDS011;23307;51.136;14.942;2023-03-19T07:11:10;8.95;;;7.18;;
37445;SDS011;23307;51.136;14.942;2023-03-19T07:13:36;10.65;;;7.65;;
37445;SDS011;23307;51.136;14.942;2023-03-19T07:16:02;12.27;;;7.82;;
37445;SDS011;23307;51.136;14.942;2023-03-19T07:18:27;13.68;;;7.40;;
37445;SDS011;23307;51.136;14.942;2023-03-19T07:20:53;9.32;;;7.30;;
37445;SDS011;23307;51.136;14.942;2023-03-19T07:23:18;11.70;;;8.07;;
37445;SDS011;23307;51.136;14.942;2023-03-19T07:25:47;10.65;;;8.63;;
37445;SDS011;23307;51.136;14.942;2023-03-19T07:28:13;13.55;;;7.57;;
37445;SDS011;23307;51.136;14.942;2023-03-19T07:30:39;10.60;;;7.88;;
37445;SDS011;23307;51.136;14.942;2023-03-19T07:33:05;12.27;;;7.82;;
37445;SDS011;23307;51.136;14.942;2023-03-19T07:35:31;11.13;;;8.23;;
37445;SDS011;23307;51.136;14.942;2023-03-19T07:37:57;11.90;;;8.35;;
37445;SDS011;23307;51.136;14.942;2023-03-19T07:40:24;11.98;;;8.13;;
37445;SDS011;23307;51.136;14.942;2023-03-19T07:42:50;11.20;;;7.80;;
37445;SDS011;23307;51.136;14.942;2023-03-19T07:45:16;10.52;;;7.88;;
37445;SDS011;23307;51.136;14.942;2023-03-19T07:47:42;11.00;;;7.07;;
37445;SDS011;23307;51.136;14.942;2023-03-19T07:50:08;11.25;;;8.00;;
37445;SDS011;23307;51.136;14.942;2023-03-19T07:52:34;11.55;;;8.63;;
37445;SDS011;23307;51.136;14.942;2023-03-19T07:54:59;12.00;;;8.50;;
37445;SDS011;23307;51.136;14.942;2023-03-19T07:57:25;10.77;;;8.27;;
37445;SDS011;23307;51.136;14.942;2023-03-19T07:59:51;12.00;;;8.55;;
37445;SDS011;23307;51.136;14.942;2023-03-19T08:02:16;11.10;;;7.93;;
37445;SDS011;23307;51.136;14.942;2023-03-19T08:04:42;11.75;;;7.70;;
37445;SDS011;23307;51.136;14.942;2023-03-19T08:07:08;10.27;;;8.02;;
37445;SDS011;23307;51.136;14.942;2023-03-19T08:09:35;9.75;;;7.97;;
37445;SDS011;23307;51.136;14.942;2023-03-19T08:12:01;11.85;;;8.18;;
37445;SDS011;23307;51.136;14.942;2023-03-19T08:14:27;11.02;;;8.27;;
37445;SDS011;23307;51.136;14.942;2023-03-19T08:16:52;9.93;;;8.38;;
37445;SDS011;23307;51.136;14.942;2023-03-19T08:19:18;13.93;;;8.05;;
37445;SDS011;23307;51.136;14.942;2023-03-19T08:21:43;12.00;;;7.50;;
37445;SDS011;23307;51.136;14.942;2023-03-19T08:24:09;11.52;;;8.43;;
37445;SDS011;23307;51.136;14.942;2023-03-19T08:26:35;10.75;;;8.50;;
37445;SDS011;23307;51.136;14.942;2023-03-19T08:29:01;11.43;;;8.75;;
37445;SDS011;23307;51.136;14.942;2023-03-19T08:31:28;11.35;;;8.15;;
37445;SDS011;23307;51.136;14.942;2023-03-19T08:33:54;10.98;;;8.30;;
37445;SDS011;23307;51.136;14.942;2023-03-19T08:36:19;11.07;;;8.05;;
37445;SDS011;23307;51.136;14.942;2023-03-19T08:38:45;12.90;;;8.52;;
37445;SDS011;23307;51.136;14.942;2023-03-19T08:41:10;11.35;;;8.52;;
37445;SDS011;23307;51.136;14.942;2023-03-19T08:43:36;11.95;;;8.70;;
37445;SDS011;23307;51.136;14.942;2023-03-19T08:46:03;13.02;;;8.77;;
37445;SDS011;23307;51.136;14.942;2023-03-19T08:48:29;11.45;;;8.50;;
37445;SDS011;23307;51.136;14.942;2023-03-19T08:50:55;10.07;;;8.82;;
37445;SDS011;23307;51.136;14.942;2023-03-19T08:53:22;12.73;;;8.77;;
37445;SDS011;23307;51.136;14.942;2023-03-19T08:55:59;11.10;;;7.60;;
37445;SDS011;23307;51.136;14.942;2023-03-19T08:58:26;10.32;;;7.82;;
37445;SDS011;23307;51.136;14.942;2023-03-19T09:00:52;12.23;;;8.20;;
37445;SDS011;23307;51.136;14.942;2023-03-19T09:03:24;11.50;;;7.95;;
37445;SDS011;23307;51.136;14.942;2023-03-19T09:05:50;10.82;;;8.48;;
37445;SDS011;23307;51.136;14.942;2023-03-19T09:08:15;11.93;;;8.50;;
37445;SDS011;23307;51.136;14.942;2023-03-19T09:10:41;11.13;;;8.18;;
37445;SDS011;23307;51.136;14.942;2023-03-19T09:13:06;12.25;;;8.52;;
37445;SDS011;23307;51.136;14.942;2023-03-19T09:15:32;11.52;;;8.50;;
37445;SDS011;23307;51.136;14.942;2023-03-19T09:17:57;11.90;;;8.40;;
37445;SDS011;23307;51.136;14.942;2023-03-19T09:20:22;11.10;;;8.45;;
37445;SDS011;23307;51.136;14.942;2023-03-19T09:22:48;12.15;;;8.38;;
37445;SDS011;23307;51.136;14.942;2023-03-19T09:25:14;11.95;;;8.73;;
37445;SDS011;23307;51.136;14.942;2023-03-19T09:27:39;11.77;;;8.68;;
37445;SDS011;23307;51.136;14.942;2023-03-19T09:30:05;11.20;;;8.65;;
37445;SDS011;23307;51.136;14.942;2023-03-19T09:32:33;10.50;;;8.57;;
37445;SDS011;23307;51.136;14.942;2023-03-19T09:34:59;11.07;;;8.93;;
37445;SDS011;23307;51.136;14.942;2023-03-19T09:37:25;11.05;;;8.80;;
37445;SDS011;23307;51.136;14.942;2023-03-19T09:39:51;13.07;;;8.75;;
37445;SDS011;23307;51.136;14.942;2023-03-19T09:44:44;11.02;;;8.35;;
37445;SDS011;23307;51.136;14.942;2023-03-19T09:49:47;10.07;;;8.30;;
37445;SDS011;23307;51.136;14.942;2023-03-19T09:52:23;12.30;;;8.15;;
37445;SDS011;23307;51.136;14.942;2023-03-19T09:55:34;11.57;;;8.68;;
37445;SDS011;23307;51.136;14.942;2023-03-19T09:58:07;10.98;;;8.52;;
37445;SDS011;23307;51.136;14.942;2023-03-19T10:00:40;9.20;;;8.15;;
37445;SDS011;23307;51.136;14.942;2023-03-19T10:03:14;12.27;;;8.68;;
37445;SDS011;23307;51.136;14.942;2023-03-19T10:08:55;11.35;;;8.43;;
37445;SDS011;23307;51.136;14.942;2023-03-19T10:17:06;11.32;;;8.77;;
37445;SDS011;23307;51.136;14.942;2023-03-19T10:22:23;13.00;;;8.02;;
37445;SDS011;23307;51.136;14.942;2023-03-19T10:24:57;11.20;;;8.52;;
37445;SDS011;23307;51.136;14.942;2023-03-19T10:27:25;11.07;;;8.98;;
37445;SDS011;23307;51.136;14.942;2023-03-19T10:29:53;11.35;;;9.20;;
37445;SDS011;23307;51.136;14.942;2023-03-19T10:32:40;11.52;;;9.05;;
37445;SDS011;23307;51.136;14.942;2023-03-19T10:35:18;12.50;;;9.25;;
37445;SDS011;23307;51.136;14.942;2023-03-19T10:37:51;11.43;;;8.70;;
37445;SDS011;23307;51.136;14.942;2023-03-19T10:41:19;11.82;;;8.82;;
37445;SDS011;23307;51.136;14.942;2023-03-19T10:43:33;11.27;;;8.82;;
37445;SDS011;23307;51.136;14.942;2023-03-19T10:46:01;13.00;;;8.55;;
37445;SDS011;23307;51.136;14.942;2023-03-19T10:48:26;10.25;;;8.40;;
37445;SDS011;23307;51.136;14.942;2023-03-19T10:50:56;11.57;;;8.75;;
37445;SDS011;23307;51.136;14.942;2023-03-19T10:53:29;10.73;;;8.27;;
37445;SDS011;23307;51.136;14.942;2023-03-19T10:56:01;13.82;;;8.77;;
37445;SDS011;23307;51.136;14.942;2023-03-19T10:58:29;13.10;;;8.60;;
37445;SDS011;23307;51.136;14.942;2023-03-19T11:01:07;10.93;;;8.05;;
37445;SDS011;23307;51.136;14.942;2023-03-19T11:03:49;11.10;;;8.32;;
37445;SDS011;23307;51.136;14.942;2023-03-19T11:06:22;11.85;;;8.95;;
37445;SDS011;23307;51.136;14.942;2023-03-19T11:11:26;10.98;;;8.63;;
37445;SDS011;23307;51.136;14.942;2023-03-19T11:14:15;12.15;;;8.25;;
37445;SDS011;23307;51.136;14.942;2023-03-19T11:16:48;11.85;;;8.63;;
37445;SDS011;23307;51.136;14.942;2023-03-19T11:19:26;12.25;;;8.55;;
37445;SDS011;23307;51.136;14.942;2023-03-19T11:24:31;10.45;;;8.18;;
37445;SDS011;23307;51.136;14.942;2023-03-19T11:27:00;10.32;;;8.05;;
37445;SDS011;23307;51.136;14.942;2023-03-19T11:29:27;10.88;;;8.18;;
37445;SDS011;23307;51.136;14.942;2023-03-19T11:32:04;9.45;;;8.07;;
37445;SDS011;23307;51.136;14.942;2023-03-19T11:34:58;9.57;;;7.97;;
37445;SDS011;23307;51.136;14.942;2023-03-19T11:51:33;10.25;;;8.25;;
37445;SDS011;23307;51.136;14.942;2023-03-19T11:54:24;11.10;;;8.02;;
37445;SDS011;23307;51.136;14.942;2023-03-19T11:57:11;11.00;;;7.78;;
37445;SDS011;23307;51.136;14.942;2023-03-19T12:02:42;9.30;;;8.05;;
37445;SDS011;23307;51.136;14.942;2023-03-19T12:05:30;10.98;;;7.90;;
37445;SDS011;23307;51.136;14.942;2023-03-19T12:08:35;10.18;;;8.02;;
37445;SDS011;23307;51.136;14.942;2023-03-19T12:11:00;11.55;;;8.75;;
37445;SDS011;23307;51.136;14.942;2023-03-19T12:13:47;10.13;;;8.00;;
37445;SDS011;23307;51.136;14.942;2023-03-19T12:16:36;11.48;;;8.45;;
37445;SDS011;23307;51.136;14.942;2023-03-19T12:19:22;10.07;;;8.10;;
37445;SDS011;23307;51.136;14.942;2023-03-19T12:32:58;11.00;;;8.85;;
37445;SDS011;23307;51.136;14.942;2023-03-19T12:35:38;12.98;;;8.90;;
37445;SDS011;23307;51.136;14.942;2023-03-19T12:38:08;11.88;;;8.75;;
37445;SDS011;23307;51.136;14.942;2023-03-19T12:43:17;10.50;;;8.63;;
37445;SDS011;23307;51.136;14.942;2023-03-19T12:45:54;10.82;;;8.50;;
37445;SDS011;23307;51.136;14.942;2023-03-19T12:48:27;10.45;;;8.10;;
37445;SDS011;23307;51.136;14.942;2023-03-19T12:51:01;10.82;;;8.40;;
37445;SDS011;23307;51.136;14.942;2023-03-19T12:53:49;9.93;;;8.30;;
37445;SDS011;23307;51.136;14.942;2023-03-19T12:56:27;10.60;;;8.60;;
37445;SDS011;23307;51.136;14.942;2023-03-19T12:59:18;10.07;;;8.57;;
37445;SDS011;23307;51.136;14.942;2023-03-19T13:01:57;10.13;;;8.23;;
37445;SDS011;23307;51.136;14.942;2023-03-19T13:04:37;10.90;;;8.27;;
37445;SDS011;23307;51.136;14.942;2023-03-19T13:07:15;9.93;;;8.18;;
37445;SDS011;23307;51.136;14.942;2023-03-19T13:09:55;12.02;;;9.23;;
37445;SDS011;23307;51.136;14.942;2023-03-19T13:12:26;11.65;;;8.85;;
37445;SDS011;23307;51.136;14.942;2023-03-19T13:14:56;10.85;;;8.57;;
37445;SDS011;23307;51.136;14.942;2023-03-19T13:23:23;10.15;;;8.52;;
37445;SDS011;23307;51.136;14.942;2023-03-19T13:25:53;12.05;;;9.23;;
37445;SDS011;23307;51.136;14.942;2023-03-19T13:28:27;10.80;;;8.75;;
37445;SDS011;23307;51.136;14.942;2023-03-19T13:33:28;12.25;;;9.00;;
37445;SDS011;23307;51.136;14.942;2023-03-19T13:35:54;11.60;;;8.63;;
37445;SDS011;23307;51.136;14.942;2023-03-19T13:41:02;11.02;;;9.35;;
37445;SDS011;23307;51.136;14.942;2023-03-19T13:48:36;12.38;;;8.77;;
37445;SDS011;23307;51.136;14.942;2023-03-19T13:53:40;11.23;;;8.80;;
37445;SDS011;23307;51.136;14.942;2023-03-19T13:56:16;11.88;;;8.90;;
37445;SDS011;23307;51.136;14.942;2023-03-19T13:58:47;11.82;;;9.02;;
37445;SDS011;23307;51.136;14.942;2023-03-19T14:04:01;12.90;;;9.10;;
37445;SDS011;23307;51.136;14.942;2023-03-19T14:06:34;11.77;;;8.15;;
37445;SDS011;23307;51.136;14.942;2023-03-19T14:09:04;11.50;;;8.20;;
37445;SDS011;23307;51.136;14.942;2023-03-19T14:11:50;10.27;;;8.55;;
37445;SDS011;23307;51.136;14.942;2023-03-19T14:14:15;12.75;;;8.68;;
37445;SDS011;23307;51.136;14.942;2023-03-19T14:16:42;11.48;;;9.32;;
37445;SDS011;23307;51.136;14.942;2023-03-19T14:19:15;11.75;;;9.07;;
37445;SDS011;23307;51.136;14.942;2023-03-19T14:24:33;11.85;;;8.73;;
37445;SDS011;23307;51.136;14.942;2023-03-19T14:27:13;13.23;;;8.70;;
37445;SDS011;23307;51.136;14.942;2023-03-19T14:29:42;11.18;;;8.30;;
37445;SDS011;23307;51.136;14.942;2023-03-19T14:32:12;11.07;;;8.70;;
37445;SDS011;23307;51.136;14.942;2023-03-19T14:34:44;10.93;;;8.05;;
37445;SDS011;23307;51.136;14.942;2023-03-19T14:37:22;12.30;;;8.57;;
37445;SDS011;23307;51.136;14.942;2023-03-19T14:39:53;11.02;;;8.73;;
37445;SDS011;23307;51.136;14.942;2023-03-19T14:53:41;11.13;;;8.75;;
37445;SDS011;23307;51.136;14.942;2023-03-19T14:56:15;11.93;;;8.70;;
37445;SDS011;23307;51.136;14.942;2023-03-19T14:58:49;11.63;;;8.70;;
37445;SDS011;23307;51.136;14.942;2023-03-19T15:01:17;10.82;;;8.13;;
37445;SDS011;23307;51.136;14.942;2023-03-19T15:03:43;12.20;;;8.32;;
37445;SDS011;23307;51.136;14.942;2023-03-19T15:06:11;10.77;;;8.00;;
37445;SDS011;23307;51.136;14.942;2023-03-19T15:08:38;9.75;;;8.50;;
37445;SDS011;23307;51.136;14.942;2023-03-19T15:19:27;16.67;;;9.48;;
37445;SDS011;23307;51.136;14.942;2023-03-19T15:22:10;12.18;;;9.20;;
37445;SDS011;23307;51.136;14.942;2023-03-19T15:24:43;10.93;;;8.98;;
37445;SDS011;23307;51.136;14.942;2023-03-19T15:27:18;10.90;;;9.13;;
37445;SDS011;23307;51.136;14.942;2023-03-19T15:29:49;10.55;;;9.45;;
37445;SDS011;23307;51.136;14.942;2023-03-19T15:32:35;10.32;;;8.98;;
37445;SDS011;23307;51.136;14.942;2023-03-19T15:35:02;12.20;;;9.50;;
37445;SDS011;23307;51.136;14.942;2023-03-19T15:37:29;13.25;;;9.38;;
37445;SDS011;23307;51.136;14.942;2023-03-19T15:39:58;10.68;;;9.25;;
37445;SDS011;23307;51.136;14.942;2023-03-19T15:42:25;12.05;;;9.00;;
37445;SDS011;23307;51.136;14.942;2023-03-19T15:44:59;11.02;;;9.13;;
37445;SDS011;23307;51.136;14.942;2023-03-19T15:47:29;13.57;;;8.88;;
37445;SDS011;23307;51.136;14.942;2023-03-19T15:49:58;11.00;;;9.13;;
37445;SDS011;23307;51.136;14.942;2023-03-19T15:52:29;9.82;;;8.57;;
37445;SDS011;23307;51.136;14.942;2023-03-19T15:54:58;11.60;;;8.55;;
37445;SDS011;23307;51.136;14.942;2023-03-19T15:57:25;13.68;;;8.93;;
37445;SDS011;23307;51.136;14.942;2023-03-19T15:59:52;13.57;;;9.13;;
37445;SDS011;23307;51.136;14.942;2023-03-19T16:04:50;11.20;;;8.60;;
37445;SDS011;23307;51.136;14.942;2023-03-19T16:07:31;10.93;;;8.45;;
37445;SDS011;23307;51.136;14.942;2023-03-19T16:10:21;12.00;;;8.20;;
37445;SDS011;23307;51.136;14.942;2023-03-19T16:13:02;11.00;;;8.95;;
37445;SDS011;23307;51.136;14.942;2023-03-19T16:15:43;11.27;;;9.25;;
37445;SDS011;23307;51.136;14.942;2023-03-19T16:20:40;11.50;;;9.20;;